Time;durP1;ratioP1;P1;durP2;ratioP2;P2;SDS_P1;SDS_P2;PMS_P1;PMS_P2;Temp;Humidity;BMP_temperature;BMP_pressure;BME280_temperature;BME280_humidity;BME280_pressure;Samples;Min_cycle;Max_cycle;Signal;HPM_P1;HPM_P2
2021/01/13 13:14:35;;;;;;;11.08;7.22;;;;;;;-3.96;83.30;99176.47;1752418;78;21251;-41
2021/01/13 13:17:04;;;;;;;9.50;6.58;;;;;;;-3.99;83.16;99181.47;1674057;78;21328;-38
2021/01/13 13:22:30;;;;;;;9.97;6.07;;;;;;;-4.08;82.79;99172.02;1721072;81;21543;-32
2021/01/13 13:24:57;;;;;;;10.78;6.47;;;;;;;-4.13;83.31;99174.00;1639795;83;21066;-32
2021/01/13 13:27:25;;;;;;;11.68;7.25;;;;;;;-4.16;83.43;99168.89;1720428;81;21267;-33
2021/01/13 13:29:54;;;;;;;12.88;7.37;;;;;;;-4.18;83.40;99173.89;1689669;82;21185;-34
2021/01/13 13:32:23;;;;;;;10.75;6.20;;;;;;;-4.17;83.37;99163.39;1694380;82;21269;-33
2021/01/13 13:34:52;;;;;;;9.85;6.70;;;;;;;-4.20;83.69;99159.11;1690678;82;21177;-32
2021/01/13 13:37:20;;;;;;;8.55;6.00;;;;;;;-4.20;83.88;99157.84;1706049;81;21559;-33
2021/01/13 13:39:47;;;;;;;6.97;5.40;;;;;;;-4.19;83.60;99153.23;1725608;81;21394;-32
2021/01/13 13:42:17;;;;;;;8.40;5.90;;;;;;;-4.21;83.69;99159.54;1730869;81;21517;-33
2021/01/13 13:44:45;;;;;;;9.05;6.25;;;;;;;-4.21;83.54;99153.22;1734695;80;20994;-34
2021/01/13 13:47:14;;;;;;;9.10;5.90;;;;;;;-4.23;83.69;99156.13;1740005;81;21031;-32
2021/01/13 13:49:43;;;;;;;10.20;5.60;;;;;;;-4.25;83.67;99153.98;1719120;82;21175;-33
2021/01/13 13:52:11;;;;;;;9.43;5.75;;;;;;;-4.29;83.75;99160.20;1719600;82;22581;-33
2021/01/13 13:54:42;;;;;;;11.45;6.55;;;;;;;-4.31;83.76;99162.67;1716029;82;21130;-33
2021/01/13 13:57:10;;;;;;;12.23;6.47;;;;;;;-4.34;83.77;99177.78;1692540;83;21006;-33
2021/01/13 13:59:40;;;;;;;8.93;5.90;;;;;;;-4.38;83.73;99179.80;1715347;82;21427;-34
2021/01/13 14:02:08;;;;;;;9.05;5.80;;;;;;;-4.41;83.95;99181.00;1715937;83;21097;-33
2021/01/13 14:04:36;;;;;;;8.15;5.60;;;;;;;-4.44;84.18;99183.47;1716137;83;21993;-33
2021/01/13 14:07:05;;;;;;;14.63;6.90;;;;;;;-4.46;84.28;99191.00;1723586;81;21138;-34
2021/01/13 14:09:34;;;;;;;13.32;7.08;;;;;;;-4.45;84.38;99198.19;1730387;81;21003;-33
2021/01/13 14:12:03;;;;;;;9.45;6.55;;;;;;;-4.48;84.47;99196.03;1710936;81;21062;-34
2021/01/13 14:14:32;;;;;;;10.63;7.10;;;;;;;-4.48;84.55;99194.77;1718710;83;21130;-33
2021/01/13 14:17:00;;;;;;;12.68;6.80;;;;;;;-4.53;84.79;99192.95;1717779;82;21366;-33
2021/01/13 14:19:28;;;;;;;21.93;8.03;;;;;;;-4.51;84.96;99197.62;1722571;83;21069;-35
2021/01/13 14:21:57;;;;;;;13.95;7.50;;;;;;;-4.55;85.18;99202.17;1715971;82;21254;-34
2021/01/13 14:24:25;;;;;;;13.15;7.25;;;;;;;-4.58;85.44;99204.20;1716900;83;21166;-32
2021/01/13 14:26:59;;;;;;;18.05;6.90;;;;;;;-4.62;85.67;99202.04;1733258;81;20983;-32
2021/01/13 14:29:27;;;;;;;11.93;7.83;;;;;;;-4.63;85.96;99205.78;1716711;82;21222;-33
2021/01/13 14:31:55;;;;;;;12.58;8.03;;;;;;;-4.66;86.39;99207.84;1719648;82;21118;-32
2021/01/13 14:34:24;;;;;;;13.62;7.95;;;;;;;-4.69;86.65;99212.80;1716568;82;21198;-34
2021/01/13 14:36:58;;;;;;;15.83;8.28;;;;;;;-4.70;86.87;99212.78;1720692;83;20955;-31
2021/01/13 14:39:26;;;;;;;16.15;8.10;;;;;;;-4.70;87.15;99218.67;1714983;83;21035;-32
2021/01/13 14:41:54;;;;;;;14.53;7.17;;;;;;;-4.73;87.44;99218.59;1690426;82;21344;-33
2021/01/13 14:44:22;;;;;;;12.82;7.35;;;;;;;-4.77;87.60;99218.95;1727324;80;21928;-33
2021/01/13 14:46:50;;;;;;;22.73;9.35;;;;;;;-4.76;87.78;99219.80;1715889;83;21166;-34
2021/01/13 14:49:17;;;;;;;13.80;7.92;;;;;;;-4.73;88.09;99218.59;1716997;82;21023;-34
2021/01/13 14:51:45;;;;;;;18.02;10.10;;;;;;;-4.79;88.26;99215.55;1717207;83;21038;-31
2021/01/13 14:54:13;;;;;;;18.30;8.75;;;;;;;-4.79;88.42;99219.33;1719516;81;21437;-31
2021/01/13 14:56:41;;;;;;;14.58;8.40;;;;;;;-4.81;88.54;99215.88;1732516;81;21154;-32
2021/01/13 14:59:09;;;;;;;16.05;9.88;;;;;;;-4.84;88.61;99218.34;1721954;81;20924;-32
2021/01/13 15:01:37;;;;;;;14.98;7.95;;;;;;;-4.81;88.60;99218.84;1716863;83;21218;-32
2021/01/13 15:04:05;;;;;;;15.08;8.65;;;;;;;-4.84;88.52;99223.81;1730166;80;20984;-32
2021/01/13 15:06:33;;;;;;;16.65;8.63;;;;;;;-4.86;88.49;99222.92;1725182;82;21372;-33
2021/01/13 15:09:02;;;;;;;13.80;8.75;;;;;;;-4.88;88.52;99232.14;1736201;81;21054;-34
2021/01/13 15:11:31;;;;;;;15.35;9.40;;;;;;;-4.89;88.51;99226.64;1726808;82;21037;-34
2021/01/13 15:13:59;;;;;;;18.10;9.80;;;;;;;-4.90;88.45;99224.52;1728838;81;21195;-32
2021/01/13 15:16:27;;;;;;;17.87;8.30;;;;;;;-4.89;88.37;99230.01;1728766;81;21040;-33
2021/01/13 15:18:55;;;;;;;16.52;9.20;;;;;;;-4.91;88.33;99231.64;1711527;82;21349;-32
2021/01/13 15:21:24;;;;;;;16.90;9.23;;;;;;;-4.90;88.23;99225.77;1738732;80;21418;-33
2021/01/13 15:23:52;;;;;;;15.78;8.33;;;;;;;-4.92;88.15;99224.49;1728360;81;21513;-33
2021/01/13 15:26:20;;;;;;;19.55;8.88;;;;;;;-4.91;88.11;99225.33;1716159;82;20900;-33
2021/01/13 15:28:48;;;;;;;14.78;8.18;;;;;;;-4.92;88.02;99219.84;1715968;83;21118;-33
2021/01/13 15:31:16;;;;;;;20.15;10.28;;;;;;;-4.90;87.92;99216.94;1699291;82;21271;-32
2021/01/13 15:33:43;;;;;;;16.82;9.30;;;;;;;-4.90;87.87;99219.47;1713416;83;22416;-32
2021/01/13 15:36:12;;;;;;;13.78;4.42;;;;;;;-4.92;87.85;99214.79;1713999;83;21190;-33
2021/01/13 15:38:40;;;;;;;18.27;9.38;;;;;;;-4.94;87.76;99216.00;1717471;82;21134;-32
2021/01/13 15:41:12;;;;;;;16.20;9.10;;;;;;;-4.96;87.75;99206.70;1720316;81;20942;-32
2021/01/13 15:43:40;;;;;;;20.10;9.93;;;;;;;-4.99;87.74;99220.09;1734439;81;21208;-33
2021/01/13 15:46:09;;;;;;;24.07;10.13;;;;;;;-4.99;87.69;99219.25;1736558;81;20966;-32
2021/01/13 15:48:38;;;;;;;22.85;9.75;;;;;;;-5.00;87.65;99232.27;1715206;83;21022;-34
2021/01/13 15:51:09;;;;;;;18.85;9.85;;;;;;;-4.99;87.55;99223.03;1718749;83;21644;-33
2021/01/13 15:53:44;;;;;;;20.70;10.55;;;;;;;-4.94;87.43;99226.52;1731314;80;21072;-34
2021/01/13 15:56:14;;;;;;;20.43;6.20;;;;;;;-4.95;87.21;99228.17;1726790;80;21483;-32
2021/01/13 15:58:56;;;;;;;17.15;8.98;;;;;;;-4.93;87.08;99226.97;1719732;83;20940;-34
2021/01/13 16:01:25;;;;;;;14.68;7.55;;;;;;;-4.93;86.87;99231.59;1716649;83;21161;-32
2021/01/13 16:03:53;;;;;;;17.42;8.45;;;;;;;-4.91;86.68;99227.46;1686113;83;21057;-33
2021/01/13 16:06:21;;;;;;;20.02;9.98;;;;;;;-4.87;86.48;99217.44;1714430;83;21422;-33
2021/01/13 16:08:49;;;;;;;23.83;9.65;;;;;;;-4.87;86.46;99216.17;1715640;82;21326;-33
2021/01/13 16:11:17;;;;;;;20.70;10.82;;;;;;;-4.87;86.23;99219.96;1725894;80;21236;-33
2021/01/13 16:13:46;;;;;;;23.02;10.72;;;;;;;-4.84;86.09;99222.55;1726095;82;21423;-33
2021/01/13 16:16:18;;;;;;;15.25;9.33;;;;;;;-4.83;85.90;99229.31;1729597;81;21620;-34
2021/01/13 16:18:46;;;;;;;17.15;10.03;;;;;;;-4.81;85.77;99239.04;1741251;81;20998;-33
2021/01/13 16:21:15;;;;;;;18.75;9.93;;;;;;;-4.81;85.72;99255.45;1716351;83;21216;-33
2021/01/13 16:23:42;;;;;;;23.00;9.98;;;;;;;-4.80;85.51;99257.16;1718455;83;21569;-32
2021/01/13 16:26:11;;;;;;;16.23;9.75;;;;;;;-4.81;85.20;99246.19;1715746;83;21079;-33
2021/01/13 16:28:40;;;;;;;20.20;10.43;;;;;;;-4.82;85.15;99252.48;1729740;81;20995;-32
2021/01/13 16:31:09;;;;;;;15.60;8.98;;;;;;;-4.85;85.14;99248.20;1715181;83;21117;-32
2021/01/13 16:33:43;;;;;;;17.12;9.95;;;;;;;-4.87;85.10;99254.05;1715611;82;21211;-33
2021/01/13 16:36:17;;;;;;;18.20;9.53;;;;;;;-4.87;85.08;99261.63;1711294;83;21134;-34
2021/01/13 16:38:45;;;;;;;13.38;8.93;;;;;;;-4.86;84.86;99265.85;1686624;83;21029;-33
2021/01/13 16:41:13;;;;;;;15.63;9.40;;;;;;;-4.84;85.04;99273.05;1715289;83;21145;-32
2021/01/13 16:43:41;;;;;;;17.90;9.70;;;;;;;-4.84;84.87;99276.42;1737520;81;21429;-32
2021/01/13 16:46:11;;;;;;;16.67;9.80;;;;;;;-4.84;84.86;99278.94;1725655;81;21535;-33
2021/01/13 16:48:39;;;;;;;17.57;8.98;;;;;;;-4.82;84.79;99284.05;1730174;80;21220;-32
2021/01/13 16:51:08;;;;;;;14.98;9.13;;;;;;;-4.83;84.72;99280.66;1725191;81;21154;-33
2021/01/13 16:53:37;;;;;;;14.20;8.55;;;;;;;-4.79;84.90;99289.17;1723973;81;21132;-32
2021/01/13 16:56:08;;;;;;;21.82;8.70;;;;;;;-4.80;84.91;99292.52;1726130;81;21547;-33
2021/01/13 16:58:41;;;;;;;17.07;9.50;;;;;;;-4.79;84.87;99305.58;1717504;83;21411;-32
2021/01/13 17:01:09;;;;;;;15.05;8.43;;;;;;;-4.75;84.75;99304.84;1724218;82;21081;-34
2021/01/13 17:03:39;;;;;;;15.40;8.95;;;;;;;-4.72;84.70;99312.48;1732656;81;21114;-33
2021/01/13 17:06:09;;;;;;;18.23;9.23;;;;;;;-4.69;84.21;99314.25;1716958;82;21600;-32
2021/01/13 17:08:39;;;;;;;17.37;8.10;;;;;;;-4.69;84.24;99323.09;1725781;80;21121;-33
2021/01/13 17:11:07;;;;;;;22.00;9.15;;;;;;;-4.70;84.00;99322.22;1725560;82;21276;-33
2021/01/13 17:13:36;;;;;;;15.48;9.20;;;;;;;-4.68;84.14;99328.16;1715824;83;21176;-32
2021/01/13 17:16:06;;;;;;;16.48;8.85;;;;;;;-4.69;83.98;99323.09;1719336;83;21098;-33
2021/01/13 17:18:37;;;;;;;19.10;9.03;;;;;;;-4.69;83.67;99317.61;1718231;83;21161;-33
2021/01/13 17:21:06;;;;;;;12.28;8.08;;;;;;;-4.69;83.70;99320.56;1715689;82;21505;-32
2021/01/13 17:23:34;;;;;;;16.42;8.95;;;;;;;-4.67;83.52;99321.45;1713877;83;21376;-32
2021/01/13 17:26:03;;;;;;;13.53;7.72;;;;;;;-4.67;83.53;99312.22;1721310;83;21132;-34
2021/01/13 17:28:31;;;;;;;12.78;8.65;;;;;;;-4.68;83.45;99328.16;1716002;82;20999;-35
2021/01/13 17:30:59;;;;;;;15.65;8.68;;;;;;;-4.68;83.42;99330.69;1719819;83;21568;-32
2021/01/13 17:33:27;;;;;;;17.85;8.05;;;;;;;-4.67;83.44;99327.77;1720678;83;21068;-31
2021/01/13 17:35:58;;;;;;;11.88;7.53;;;;;;;-4.66;83.20;99332.00;1723773;81;21632;-31
2021/01/13 17:38:26;;;;;;;15.78;8.60;;;;;;;-4.65;83.21;99329.53;1732569;82;21585;-32
2021/01/13 17:40:54;;;;;;;16.37;8.55;;;;;;;-4.64;83.41;99320.27;1725272;81;21011;-31
2021/01/13 17:43:22;;;;;;;14.45;8.83;;;;;;;-4.65;83.37;99314.77;1721146;82;21255;-32
2021/01/13 17:45:51;;;;;;;14.35;8.80;;;;;;;-4.66;83.35;99306.35;1718150;83;21117;-33
2021/01/13 17:48:19;;;;;;;15.32;8.73;;;;;;;-4.63;83.55;99293.80;1680240;84;21404;-32
2021/01/13 17:50:49;;;;;;;15.03;8.73;;;;;;;-4.66;83.56;99303.83;1728205;81;21084;-32
2021/01/13 17:53:24;;;;;;;13.93;7.83;;;;;;;-4.69;83.58;99312.56;1731527;80;21073;-34
2021/01/13 17:55:52;;;;;;;13.00;8.60;;;;;;;-4.66;83.65;99315.59;1736230;81;20919;-31
2021/01/13 17:58:20;;;;;;;13.50;8.85;;;;;;;-4.68;83.48;99313.01;1731505;81;20936;-34
2021/01/13 18:02:59;;;;;;;17.80;10.35;;;;;;;-4.61;83.36;99315.28;1776992;79;23256;-35
2021/01/13 18:05:30;;;;;;;13.58;8.83;;;;;;;-4.65;83.32;99324.48;1749857;82;21554;-33
2021/01/13 18:08:00;;;;;;;16.45;8.60;;;;;;;-4.65;83.32;99328.27;1749923;80;21370;-33
2021/01/13 18:10:27;;;;;;;19.07;10.20;;;;;;;-4.65;83.18;99328.27;1749757;82;21260;-32
2021/01/13 18:12:55;;;;;;;17.75;9.75;;;;;;;-4.61;83.09;99329.18;1749739;80;20927;-32
2021/01/13 18:15:26;;;;;;;16.37;8.83;;;;;;;-4.56;82.81;99339.41;1749685;81;20947;-34
2021/01/13 18:17:58;;;;;;;14.65;8.63;;;;;;;-4.52;83.01;99333.61;1749799;82;21089;-32
2021/01/13 18:20:27;;;;;;;30.95;9.05;;;;;;;-4.50;83.07;99343.34;1749734;82;21275;-31
2021/01/13 18:22:55;;;;;;;15.28;8.00;;;;;;;-4.48;82.95;99340.44;1749839;82;20929;-32
2021/01/13 18:25:23;;;;;;;13.30;7.37;;;;;;;-4.43;82.63;99337.61;1749715;81;21161;-32
2021/01/13 18:27:51;;;;;;;14.07;8.90;;;;;;;-4.40;82.56;99337.72;1749742;82;20991;-34
2021/01/13 18:30:21;;;;;;;11.12;7.60;;;;;;;-4.39;82.34;99330.58;1749822;82;20999;-33
2021/01/13 18:32:52;;;;;;;11.90;7.95;;;;;;;-4.36;81.95;99325.98;1749742;82;21447;-34
2021/01/13 18:35:23;;;;;;;16.57;9.30;;;;;;;-4.31;82.23;99328.64;1749611;81;21026;-32
2021/01/13 18:38:00;;;;;;;13.93;8.40;;;;;;;-4.30;81.96;99324.03;1749677;81;20979;-34
2021/01/13 18:40:29;;;;;;;13.95;7.92;;;;;;;-4.28;81.87;99326.17;1749652;82;20928;-32
2021/01/13 18:43:07;;;;;;;11.35;7.55;;;;;;;-4.28;81.89;99328.70;1749821;81;21435;-35
2021/01/13 18:45:42;;;;;;;13.15;8.00;;;;;;;-4.26;81.87;99332.13;1747171;82;21565;-32
2021/01/13 18:48:12;;;;;;;14.98;8.38;;;;;;;-4.23;81.77;99343.56;1749529;81;21051;-32
2021/01/13 18:50:40;;;;;;;13.95;7.62;;;;;;;-4.21;81.22;99344.45;1749736;82;21015;-32
2021/01/13 18:53:09;;;;;;;13.75;8.83;;;;;;;-4.21;81.45;99340.66;1749658;82;20983;-33
2021/01/13 18:55:37;;;;;;;13.70;8.43;;;;;;;-4.18;81.34;99345.78;1749815;82;21506;-32
2021/01/13 18:58:05;;;;;;;12.05;8.35;;;;;;;-4.14;81.57;99340.41;1749761;82;21185;-33
2021/01/13 19:00:33;;;;;;;14.13;8.55;;;;;;;-4.16;81.53;99349.62;1749687;82;21015;-33
2021/01/13 19:03:04;;;;;;;12.35;7.90;;;;;;;-4.13;81.66;99358.14;1750313;81;21018;-33
2021/01/13 19:05:38;;;;;;;14.85;8.35;;;;;;;-4.16;81.61;99347.09;1750494;82;20983;-33
2021/01/13 19:08:10;;;;;;;12.58;7.90;;;;;;;-4.14;81.55;99347.59;1750542;82;20983;-31
2021/01/13 19:10:39;;;;;;;10.90;7.62;;;;;;;-4.14;81.41;99352.65;1750553;82;21200;-32
2021/01/13 19:13:09;;;;;;;11.95;7.15;;;;;;;-4.12;81.38;99349.75;1723091;82;20987;-33
2021/01/13 19:15:37;;;;;;;9.90;6.25;;;;;;;-4.12;80.79;99361.52;1749925;82;20915;-33
2021/01/13 19:18:05;;;;;;;12.58;7.35;;;;;;;-4.09;80.52;99352.34;1750022;82;21601;-33
2021/01/13 19:20:33;;;;;;;12.70;7.30;;;;;;;-4.10;80.22;99369.59;1750033;82;20982;-33
2021/01/13 19:23:01;;;;;;;15.83;7.35;;;;;;;-4.09;80.14;99383.07;1749939;82;21201;-33
2021/01/13 19:25:31;;;;;;;6.15;3.95;;;;;;;-4.07;79.85;99389.89;1749902;82;20990;-33
2021/01/13 19:28:01;;;;;;;13.93;8.38;;;;;;;-4.06;79.80;99385.27;1749947;82;21054;-33
2021/01/13 19:30:29;;;;;;;15.93;7.05;;;;;;;-4.05;80.15;99384.45;1749935;82;21082;-34
2021/01/13 19:33:00;;;;;;;14.33;7.08;;;;;;;-4.06;80.26;99379.34;1749993;82;21037;-33
2021/01/13 19:35:28;;;;;;;13.08;6.95;;;;;;;-4.07;80.69;99388.63;1749991;82;21336;-33
2021/01/13 19:37:57;;;;;;;13.90;7.78;;;;;;;-4.07;80.34;99389.89;1750042;82;20987;-32
2021/01/13 19:40:26;;;;;;;14.55;7.22;;;;;;;-4.06;80.69;99388.20;1749951;82;21110;-32
2021/01/13 19:42:58;;;;;;;13.08;7.65;;;;;;;-4.06;80.68;99397.92;1749924;82;21011;-32
2021/01/13 19:45:27;;;;;;;13.65;7.15;;;;;;;-4.06;80.93;99402.97;1750002;80;21066;-32
2021/01/13 19:47:58;;;;;;;18.60;8.20;;;;;;;-4.05;80.96;99408.48;1750056;82;21340;-32
2021/01/13 19:50:28;;;;;;;11.73;6.40;;;;;;;-4.05;81.13;99416.06;1749941;82;20983;-32
2021/01/13 19:52:58;;;;;;;14.95;8.20;;;;;;;-4.04;81.14;99415.24;1749899;82;20924;-32
2021/01/13 19:55:27;;;;;;;13.43;7.58;;;;;;;-4.05;80.69;99422.77;1749916;82;20983;-32
2021/01/13 19:57:56;;;;;;;13.32;7.97;;;;;;;-4.06;80.64;99428.25;1750034;82;21308;-31
2021/01/13 20:00:24;;;;;;;12.35;6.92;;;;;;;-4.05;80.54;99430.36;1749903;82;21490;-33
2021/01/13 20:02:52;;;;;;;12.00;7.92;;;;;;;-4.08;80.02;99427.76;1739701;82;20976;-31
2021/01/13 20:05:21;;;;;;;10.72;6.83;;;;;;;-4.08;80.73;99431.16;1735858;82;20987;-33
2021/01/13 20:07:50;;;;;;;10.80;6.85;;;;;;;-4.10;80.54;99435.33;1735927;82;21047;-32
2021/01/13 20:10:23;;;;;;;12.82;7.33;;;;;;;-4.09;80.25;99443.75;1735898;82;21061;-32
2021/01/13 20:12:54;;;;;;;26.07;8.08;;;;;;;-4.10;80.59;99446.70;1735882;81;21434;-31
2021/01/13 20:15:27;;;;;;;9.33;6.97;;;;;;;-4.09;80.83;99450.07;1735880;82;21055;-32
2021/01/13 20:17:55;;;;;;;12.47;6.70;;;;;;;-4.09;80.60;99463.58;1736051;82;20917;-32
2021/01/13 20:20:25;;;;;;;13.65;8.25;;;;;;;-4.09;80.46;99464.84;1735866;81;21024;-33
2021/01/13 20:22:55;;;;;;;14.90;8.30;;;;;;;-4.08;80.58;99472.00;1735911;82;20924;-32
2021/01/13 20:25:23;;;;;;;12.18;8.20;;;;;;;-4.08;80.98;99468.21;1735889;82;21422;-33
2021/01/13 20:28:00;;;;;;;15.32;8.90;;;;;;;-4.11;80.84;99470.27;1735920;82;20932;-32
2021/01/13 20:30:29;;;;;;;14.43;8.10;;;;;;;-4.11;81.05;99476.59;1735879;82;20944;-33
2021/01/13 20:33:00;;;;;;;14.90;7.97;;;;;;;-4.13;81.11;99479.50;1735892;82;21518;-33
2021/01/13 20:35:30;;;;;;;15.48;8.55;;;;;;;-4.12;81.24;99485.39;1735908;82;21000;-31
2021/01/13 20:37:59;;;;;;;14.30;8.65;;;;;;;-4.11;80.78;99494.69;1735977;81;21372;-32
2021/01/13 20:40:27;;;;;;;14.40;8.73;;;;;;;-4.07;81.32;99488.89;1735798;82;21012;-31
2021/01/13 20:42:58;;;;;;;29.27;8.25;;;;;;;-4.07;81.39;99492.67;1735837;82;20984;-32
2021/01/13 20:45:28;;;;;;;13.62;7.47;;;;;;;-4.07;81.43;99489.76;1735893;81;20941;-31
2021/01/13 20:47:57;;;;;;;13.25;8.18;;;;;;;-4.07;81.12;99492.28;1735940;82;21035;-32
2021/01/13 20:50:26;;;;;;;12.63;8.05;;;;;;;-4.09;81.36;99482.55;1735807;82;22139;-32
2021/01/13 20:52:54;;;;;;;11.80;7.05;;;;;;;-4.11;81.17;99491.77;1735925;82;21455;-32
2021/01/13 20:55:22;;;;;;;9.75;7.12;;;;;;;-4.11;81.21;99495.55;1735820;82;21473;-32
2021/01/13 20:57:50;;;;;;;14.63;6.92;;;;;;;-4.12;81.28;99498.91;1735826;82;21002;-32
2021/01/13 21:00:18;;;;;;;13.75;7.28;;;;;;;-4.12;80.75;99497.64;1735875;82;21499;-32
2021/01/13 21:02:53;;;;;;;12.50;7.67;;;;;;;-4.11;80.70;99500.61;1740436;81;21218;-31
2021/01/13 21:05:23;;;;;;;31.85;7.50;;;;;;;-4.11;81.00;99498.09;1744114;82;21051;-31
2021/01/13 21:07:52;;;;;;;13.43;7.22;;;;;;;-4.11;80.95;99501.00;1744038;82;21031;-31
2021/01/13 21:10:21;;;;;;;13.28;7.30;;;;;;;-4.11;80.82;99507.33;1744078;82;21517;-33
2021/01/13 21:12:49;;;;;;;13.38;6.53;;;;;;;-4.10;81.00;99504.85;1744095;82;20949;-32
2021/01/13 21:15:17;;;;;;;10.45;6.45;;;;;;;-4.10;80.99;99501.06;1715478;82;21216;-32
2021/01/13 21:17:45;;;;;;;8.80;6.37;;;;;;;-4.09;80.89;99501.90;1744012;82;20936;-31
2021/01/13 21:20:13;;;;;;;13.30;6.85;;;;;;;-4.08;81.06;99503.22;1743979;82;20983;-32
2021/01/13 21:22:42;;;;;;;10.78;7.62;;;;;;;-4.07;80.90;99499.87;1744027;80;20896;-32
2021/01/13 21:25:11;;;;;;;10.65;7.05;;;;;;;-4.07;81.09;99498.61;1744028;82;20975;-33
2021/01/13 21:27:39;;;;;;;17.87;8.10;;;;;;;-4.06;80.98;99505.37;1743967;82;21196;-32
2021/01/13 21:30:09;;;;;;;11.63;7.65;;;;;;;-4.05;81.02;99504.55;1743990;82;20923;-32
2021/01/13 21:32:38;;;;;;;11.20;7.72;;;;;;;-4.03;81.66;99512.19;1744015;81;20928;-32
2021/01/13 21:35:08;;;;;;;12.23;7.55;;;;;;;-4.04;81.52;99508.80;1743947;82;20908;-32
2021/01/13 21:37:40;;;;;;;11.18;7.10;;;;;;;-4.02;81.94;99510.11;1744103;82;20916;-32
2021/01/13 21:40:10;;;;;;;10.70;7.50;;;;;;;-4.05;81.53;99518.46;1744033;82;21413;-32
2021/01/13 21:42:38;;;;;;;12.07;7.67;;;;;;;-4.00;81.74;99524.05;1744017;82;20936;-32
2021/01/13 21:45:08;;;;;;;15.35;8.08;;;;;;;-3.99;81.59;99524.09;1744035;82;20991;-33
2021/01/13 21:47:40;;;;;;;32.08;8.35;;;;;;;-3.98;81.74;99528.73;1744053;82;20920;-33
2021/01/13 21:50:10;;;;;;;64.05;10.95;;;;;;;-3.96;81.67;99522.03;1744091;82;20983;-32
2021/01/13 21:52:38;;;;;;;23.32;8.90;;;;;;;-3.95;81.83;99530.06;1744013;81;21343;-32
2021/01/13 21:55:09;;;;;;;14.10;9.03;;;;;;;-3.93;81.81;99527.16;1743975;82;21014;-31
2021/01/13 21:57:38;;;;;;;14.65;9.00;;;;;;;-3.94;81.55;99521.27;1744140;82;21517;-33
2021/01/13 22:00:07;;;;;;;14.13;9.03;;;;;;;-3.94;81.35;99514.95;1743956;82;20915;-33
2021/01/13 22:02:39;;;;;;;15.55;8.83;;;;;;;-3.94;81.54;99512.41;1740896;81;21024;-33
2021/01/13 22:05:08;;;;;;;12.58;8.68;;;;;;;-3.95;81.34;99513.23;1735924;82;22159;-32
2021/01/13 22:07:37;;;;;;;13.53;8.85;;;;;;;-3.95;81.30;99520.82;1735761;82;20932;-32
2021/01/13 22:10:07;;;;;;;14.33;8.45;;;;;;;-3.93;81.17;99527.16;1735876;82;21019;-33
2021/01/13 22:12:35;;;;;;;17.42;8.03;;;;;;;-3.93;81.22;99525.50;1735837;81;20924;-32
2021/01/13 22:15:05;;;;;;;13.30;8.55;;;;;;;-3.91;81.36;99525.13;1735858;82;20995;-32
2021/01/13 22:17:34;;;;;;;12.05;8.58;;;;;;;-3.90;81.38;99528.53;1735917;81;22336;-32
2021/01/13 22:20:06;;;;;;;13.03;7.85;;;;;;;-3.90;81.43;99528.53;1735861;82;21020;-32
2021/01/13 22:22:36;;;;;;;13.40;8.63;;;;;;;-3.90;81.32;99526.84;1735798;82;21435;-32
2021/01/13 22:25:05;;;;;;;14.93;9.00;;;;;;;-3.88;81.56;99529.42;1715410;82;20984;-32
2021/01/13 22:27:37;;;;;;;11.60;7.90;;;;;;;-3.88;81.42;99533.61;1735892;82;20964;-33
2021/01/13 22:30:07;;;;;;;12.63;9.08;;;;;;;-3.88;81.53;99524.37;1735829;82;21205;-31
2021/01/13 22:32:36;;;;;;;14.13;8.28;;;;;;;-3.88;81.49;99528.16;1735763;82;20936;-32
2021/01/13 22:35:06;;;;;;;17.45;9.10;;;;;;;-3.87;81.54;99529.88;1735831;82;20976;-32
2021/01/13 22:37:35;;;;;;;12.20;7.72;;;;;;;-3.88;81.36;99529.42;1735802;82;21435;-33
2021/01/13 22:40:06;;;;;;;13.88;8.48;;;;;;;-3.87;81.60;99532.41;1735758;82;20917;-32
2021/01/13 22:42:34;;;;;;;12.90;8.83;;;;;;;-3.86;81.72;99540.83;1735923;82;22237;-33
2021/01/13 22:45:05;;;;;;;12.05;8.10;;;;;;;-3.86;81.54;99539.17;1735774;81;21007;-33
2021/01/13 22:47:33;;;;;;;15.58;8.40;;;;;;;-3.86;81.57;99549.28;1735831;82;21122;-33
2021/01/13 22:50:01;;;;;;;16.97;9.53;;;;;;;-3.85;81.78;99545.07;1735959;82;21004;-33
2021/01/13 22:52:29;;;;;;;13.08;8.48;;;;;;;-3.85;81.57;99545.07;1736013;82;21070;-32
2021/01/13 22:54:57;;;;;;;12.33;7.92;;;;;;;-3.86;81.67;99543.36;1735911;82;21424;-32
2021/01/13 22:57:25;;;;;;;14.83;9.33;;;;;;;-3.87;81.81;99546.31;1735955;82;21031;-32
2021/01/13 22:59:53;;;;;;;17.23;10.43;;;;;;;-3.87;81.74;99542.91;1735932;81;21007;-32
2021/01/13 23:02:21;;;;;;;14.80;9.55;;;;;;;-3.86;81.93;99539.56;1736330;82;20984;-32
2021/01/13 23:04:49;;;;;;;29.70;16.30;;;;;;;-3.85;81.96;99542.54;1735939;82;20928;-31
2021/01/13 23:07:17;;;;;;;43.48;22.15;;;;;;;-3.86;82.09;99537.91;1735966;82;21294;-32
2021/01/13 23:09:45;;;;;;;37.53;20.35;;;;;;;-3.85;82.22;99537.09;1735918;81;20901;-33
2021/01/13 23:12:13;;;;;;;43.48;19.75;;;;;;;-3.83;82.20;99548.09;1735924;82;21521;-33
2021/01/13 23:14:41;;;;;;;42.27;19.62;;;;;;;-3.84;82.08;99548.05;1735970;82;20996;-34
2021/01/13 23:17:09;;;;;;;42.38;21.27;;;;;;;-3.83;81.90;99553.55;1736015;82;20916;-34
2021/01/13 23:19:37;;;;;;;47.40;22.00;;;;;;;-3.86;81.77;99544.23;1735937;81;21372;-34
2021/01/13 23:22:05;;;;;;;36.40;19.30;;;;;;;-3.86;81.96;99544.23;1735866;82;20939;-33
2021/01/13 23:24:33;;;;;;;37.73;18.75;;;;;;;-3.85;81.77;99545.07;1735987;82;20952;-34
2021/01/13 23:27:01;;;;;;;38.48;18.95;;;;;;;-3.85;81.73;99548.47;1735888;82;20952;-32
2021/01/13 23:29:29;;;;;;;71.45;19.98;;;;;;;-3.86;81.85;99545.49;1735993;82;21051;-33
2021/01/13 23:31:57;;;;;;;46.45;20.27;;;;;;;-3.85;81.89;99552.27;1735993;82;21204;-33
2021/01/13 23:34:24;;;;;;;35.63;18.45;;;;;;;-3.85;82.00;99549.73;1735823;82;21490;-33
2021/01/13 23:36:52;;;;;;;55.60;20.08;;;;;;;-3.85;81.84;99552.27;1735910;81;21011;-32
2021/01/13 23:39:20;;;;;;;36.03;18.70;;;;;;;-3.85;81.80;99552.66;1735884;82;21035;-33
2021/01/13 23:41:48;;;;;;;36.08;17.40;;;;;;;-3.82;81.69;99561.58;1735938;82;20952;-32
2021/01/13 23:44:16;;;;;;;39.18;16.02;;;;;;;-3.81;81.64;99561.64;1735844;82;21384;-33
2021/01/13 23:46:44;;;;;;;31.90;15.68;;;;;;;-3.80;81.63;99561.21;1735891;82;21007;-33
2021/01/13 23:49:12;;;;;;;29.35;17.87;;;;;;;-3.79;81.54;99565.06;1735912;81;21008;-33
2021/01/13 23:51:40;;;;;;;32.85;17.02;;;;;;;-3.79;81.51;99573.91;1735926;81;21044;-32
2021/01/13 23:54:09;;;;;;;28.10;14.80;;;;;;;-3.78;81.50;99584.48;1735858;82;20920;-32
2021/01/13 23:56:37;;;;;;;25.17;12.35;;;;;;;-3.76;81.49;99591.70;1735965;82;21017;-31
2021/01/13 23:59:04;;;;;;;21.77;12.53;;;;;;;-3.73;81.35;99592.59;1735848;82;20924;-33
